createdAt,value
2022-09-12T00:00:16.578Z,160.50
2022-09-12T00:01:17.059Z,159.80
2022-09-12T00:02:16.579Z,153.20
2022-09-12T00:03:16.546Z,170.60
2022-09-12T00:04:16.539Z,156.90
2022-09-12T00:05:16.515Z,146.70
2022-09-12T00:06:20.513Z,136.60
2022-09-12T00:07:17.898Z,170.80
2022-09-12T00:08:16.477Z,161.60
2022-09-12T00:09:16.468Z,145.10
2022-09-12T00:10:16.457Z,133.70
2022-09-12T00:11:16.439Z,107.20
2022-09-12T00:12:16.432Z,129.80
2022-09-12T00:13:16.785Z,121.20
2022-09-12T00:14:16.406Z,116.30
2022-09-12T00:15:16.392Z,138.20
2022-09-12T00:16:16.420Z,143.30
2022-09-12T00:17:16.365Z,133.90
2022-09-12T00:18:16.354Z,134.70
2022-09-12T00:19:16.805Z,137.00
2022-09-12T00:20:16.341Z,141.00
2022-09-12T00:21:16.320Z,122.10
2022-09-12T00:22:16.304Z,149.60
2022-09-12T00:23:16.284Z,132.80
2022-09-12T00:24:16.311Z,127.70
2022-09-12T00:25:16.629Z,144.20
2022-09-12T00:26:16.252Z,114.40
2022-09-12T00:27:16.232Z,128.00
2022-09-12T00:28:16.226Z,144.90
2022-09-12T00:29:16.214Z,151.80
2022-09-12T00:30:16.199Z,128.50
2022-09-12T00:31:23.554Z,143.10
2022-09-12T00:32:16.157Z,174.10
2022-09-12T00:33:23.149Z,180.70
2022-09-12T00:34:23.136Z,158.20
2022-09-12T00:35:24.566Z,190.20
2022-09-12T00:36:16.122Z,164.60
2022-09-12T00:37:16.097Z,151.20
2022-09-12T00:38:16.093Z,145.30
2022-09-12T00:39:16.073Z,136.60
2022-09-12T00:40:16.106Z,124.00
2022-09-12T00:41:16.473Z,118.10
2022-09-12T00:42:16.052Z,141.60
2022-09-12T00:43:16.024Z,148.20
2022-09-12T00:44:16.025Z,137.50
2022-09-12T00:45:15.990Z,146.20
2022-09-12T00:46:15.995Z,134.90
2022-09-12T00:47:16.353Z,154.70
2022-09-12T00:48:15.965Z,145.10
2022-09-12T00:49:15.951Z,151.90
2022-09-12T00:50:15.941Z,141.90
2022-09-12T00:51:15.932Z,136.80
2022-09-12T00:52:16.258Z,119.90
2022-09-12T00:53:15.901Z,128.90
2022-09-12T00:54:15.893Z,138.60
2022-09-12T00:55:15.870Z,145.20
2022-09-12T00:56:15.862Z,121.10
2022-09-12T00:57:15.861Z,105.00
2022-09-12T00:58:16.159Z,100.60
2022-09-12T00:59:15.817Z,107.80
2022-09-12T01:00:15.820Z,115.30
2022-09-12T01:01:15.863Z,145.10
2022-09-12T01:02:16.322Z,129.10
2022-09-12T01:03:15.769Z,134.60
2022-09-12T01:04:15.763Z,120.70
2022-09-12T01:05:15.738Z,145.40
2022-09-12T01:06:15.740Z,127.20
2022-09-12T01:07:15.716Z,130.70
2022-09-12T01:08:16.102Z,133.30
2022-09-12T01:09:15.687Z,141.40
2022-09-12T01:10:15.676Z,136.80
2022-09-12T01:11:15.671Z,122.00
2022-09-12T01:12:15.669Z,114.60
2022-09-12T01:13:15.655Z,146.60
2022-09-12T01:14:15.993Z,149.20
2022-09-12T01:15:15.618Z,155.60
2022-09-12T01:16:15.636Z,157.10
2022-09-12T01:17:15.588Z,153.00
2022-09-12T01:18:15.586Z,154.90
2022-09-12T01:19:15.565Z,138.50
2022-09-12T01:20:15.924Z,131.50
2022-09-12T01:21:15.546Z,138.20
2022-09-12T01:22:15.535Z,156.70
2022-09-12T01:23:15.514Z,112.50
2022-09-12T01:24:15.513Z,121.00
2022-09-12T01:25:15.490Z,135.10
2022-09-12T01:26:15.842Z,138.70
2022-09-12T01:27:15.473Z,113.10
2022-09-12T01:28:15.453Z,165.50
2022-09-12T01:29:15.455Z,159.80
2022-09-12T01:30:15.431Z,145.20
2022-09-12T01:31:15.419Z,171.90
2022-09-12T01:32:15.888Z,166.50
2022-09-12T01:33:15.380Z,158.20
2022-09-12T01:34:15.382Z,170.40
2022-09-12T01:35:22.346Z,164.10
2022-09-12T01:36:22.353Z,191.90
2022-09-12T01:37:15.758Z,185.50
2022-09-12T01:38:15.332Z,179.30
2022-09-12T01:39:15.311Z,143.80
2022-09-12T01:40:15.345Z,159.20
2022-09-12T01:41:15.289Z,190.00
2022-09-12T01:42:15.296Z,190.20
2022-09-12T01:43:15.632Z,163.00
2022-09-12T01:44:15.280Z,156.60
2022-09-12T01:45:15.236Z,133.60
2022-09-12T01:46:15.219Z,125.10
2022-09-12T01:47:15.208Z,130.80
2022-09-12T01:48:15.199Z,140.00
2022-09-12T01:49:15.536Z,128.70
2022-09-12T01:50:15.169Z,137.20
2022-09-12T01:51:15.163Z,123.80
2022-09-12T01:52:15.161Z,135.00
2022-09-12T01:53:15.131Z,140.20
2022-09-12T01:54:15.129Z,139.90
2022-09-12T01:55:15.447Z,133.70
2022-09-12T01:56:15.098Z,138.80
2022-09-12T01:57:15.088Z,131.80
2022-09-12T01:58:15.077Z,131.10
2022-09-12T01:59:15.057Z,119.50
2022-09-12T02:00:15.468Z,122.80
2022-09-12T02:01:15.087Z,121.10
2022-09-12T02:02:15.093Z,115.40
2022-09-12T02:03:15.006Z,129.80
2022-09-12T02:04:14.994Z,152.90
2022-09-12T02:05:14.977Z,161.70
2022-09-12T02:06:15.385Z,145.90
2022-09-12T02:07:14.956Z,143.40
2022-09-12T02:08:14.941Z,143.70
2022-09-12T02:09:14.926Z,155.30
2022-09-12T02:10:15.241Z,152.20
2022-09-12T02:11:14.902Z,148.50
2022-09-12T02:12:14.890Z,160.50
2022-09-12T02:13:14.874Z,137.00
2022-09-12T02:14:14.864Z,115.40
2022-09-12T02:15:14.852Z,126.80
2022-09-12T02:16:15.295Z,130.40
2022-09-12T02:17:14.834Z,136.80
2022-09-12T02:18:14.817Z,124.90
2022-09-12T02:19:14.800Z,118.10
2022-09-12T02:20:26.084Z,144.20
2022-09-12T02:21:16.153Z,124.40
2022-09-12T02:22:14.770Z,127.70
2022-09-12T02:23:14.750Z,127.60
2022-09-12T02:24:14.735Z,112.90
2022-09-12T02:25:14.719Z,122.10
2022-09-12T02:26:14.721Z,149.00
2022-09-12T02:27:15.031Z,115.60
2022-09-12T02:28:14.700Z,125.70
2022-09-12T02:29:14.680Z,126.30
2022-09-12T02:30:14.658Z,133.00
2022-09-12T02:31:14.644Z,127.30
2022-09-12T02:32:15.066Z,147.30
2022-09-12T02:33:14.634Z,143.30
2022-09-12T02:34:14.617Z,138.00
2022-09-12T02:35:14.592Z,124.10
2022-09-12T02:36:14.587Z,120.60
2022-09-12T02:37:14.567Z,105.80
2022-09-12T02:38:14.978Z,131.30
2022-09-12T02:39:14.543Z,144.40
2022-09-12T02:40:14.608Z,140.90
2022-09-12T02:41:14.514Z,113.40
2022-09-12T02:42:14.515Z,131.30
2022-09-12T02:43:14.486Z,147.40
2022-09-12T02:44:14.835Z,154.60
2022-09-12T02:45:14.457Z,125.80
2022-09-12T02:46:14.452Z,162.40
2022-09-12T02:47:14.435Z,143.30
2022-09-12T02:48:14.437Z,122.80
2022-09-12T02:49:14.408Z,159.20
2022-09-12T02:50:14.834Z,167.00
2022-09-12T02:51:14.393Z,137.00
2022-09-12T02:52:14.372Z,188.10
2022-09-12T02:53:14.360Z,163.00
2022-09-12T02:54:14.353Z,156.70
2022-09-12T02:55:14.343Z,165.50
2022-09-12T02:56:14.751Z,179.70
2022-09-12T02:57:14.304Z,183.00
2022-09-12T02:58:14.303Z,135.20
2022-09-12T02:59:14.290Z,183.30
2022-09-12T03:00:14.271Z,163.90
2022-09-12T03:01:14.695Z,167.80
2022-09-12T03:02:14.301Z,150.80
2022-09-12T03:03:14.232Z,171.60
2022-09-12T03:04:14.239Z,149.40
2022-09-12T03:05:14.202Z,158.90
2022-09-12T03:06:14.193Z,154.60
2022-09-12T03:07:14.515Z,161.70
2022-09-12T03:08:14.164Z,152.50
2022-09-12T03:09:21.146Z,165.40
2022-09-12T03:10:21.144Z,183.20
2022-09-12T03:11:14.554Z,170.30
2022-09-12T03:12:14.112Z,170.70
2022-09-12T03:13:14.105Z,148.80
2022-09-12T03:14:14.082Z,150.70
2022-09-12T03:15:14.084Z,145.40
2022-09-12T03:16:14.149Z,165.60
2022-09-12T03:17:14.471Z,166.50
2022-09-12T03:18:14.040Z,167.00
2022-09-12T03:19:14.030Z,138.90
2022-09-12T03:20:14.012Z,174.30
2022-09-12T03:21:14.005Z,148.20
2022-09-12T03:22:13.984Z,153.80
2022-09-12T03:23:14.320Z,146.80
2022-09-12T03:24:13.963Z,140.00
2022-09-12T03:25:13.950Z,140.50
2022-09-12T03:26:13.930Z,147.30
2022-09-12T03:27:13.926Z,155.30
2022-09-12T03:28:13.909Z,165.30
2022-09-12T03:29:14.268Z,121.00
2022-09-12T03:30:13.878Z,122.70
2022-09-12T03:31:13.878Z,113.00
2022-09-12T03:32:13.851Z,146.80
2022-09-12T03:33:13.847Z,140.10
2022-09-12T03:34:13.827Z,148.00
2022-09-12T03:35:14.248Z,127.50
2022-09-12T03:36:13.809Z,121.30
2022-09-12T03:37:13.796Z,130.00
2022-09-12T03:38:13.780Z,108.10
2022-09-12T03:39:13.765Z,118.40
2022-09-12T03:40:14.203Z,140.50
2022-09-12T03:41:13.745Z,127.50
2022-09-12T03:42:13.735Z,161.60
2022-09-12T03:43:13.726Z,147.30
2022-09-12T03:44:13.706Z,148.60
2022-09-12T03:45:14.067Z,140.00
2022-09-12T03:46:13.694Z,142.80
2022-09-12T03:47:13.662Z,150.80
2022-09-12T03:48:13.650Z,154.00
2022-09-12T03:49:13.634Z,156.00
2022-09-12T03:50:14.050Z,162.60
2022-09-12T03:51:13.614Z,171.10
2022-09-12T03:52:13.601Z,141.50
2022-09-12T03:53:16.943Z,178.20
2022-09-12T03:54:13.560Z,173.20
2022-09-12T03:55:20.980Z,198.70
2022-09-12T03:56:20.528Z,205.90
2022-09-12T03:57:20.522Z,216.20
2022-09-12T03:58:20.522Z,205.00
2022-09-12T03:59:20.508Z,223.40
2022-09-12T04:00:17.670Z,203.10
2022-09-12T04:01:15.146Z,185.80
2022-09-12T04:02:13.503Z,191.20
2022-09-12T04:03:13.466Z,175.60
2022-09-12T04:04:13.444Z,174.10
2022-09-12T04:05:13.426Z,176.30
2022-09-12T04:06:13.417Z,166.50
2022-09-12T04:07:13.854Z,160.00
2022-09-12T04:08:13.386Z,166.40
2022-09-12T04:09:13.386Z,170.20
2022-09-12T04:10:16.060Z,168.70
2022-09-12T04:11:13.665Z,165.20
2022-09-12T04:12:13.342Z,164.50
2022-09-12T04:13:13.337Z,169.90
2022-09-12T04:14:13.316Z,161.50
2022-09-12T04:15:13.294Z,163.50
2022-09-12T04:16:13.322Z,159.10
2022-09-12T04:17:13.270Z,163.50
2022-09-12T04:18:13.255Z,176.40
2022-09-12T04:19:13.252Z,163.70
2022-09-12T04:20:13.224Z,152.50
2022-09-12T04:21:13.212Z,156.90
2022-09-12T04:22:13.252Z,154.30
2022-09-12T04:23:13.195Z,150.80
2022-09-12T04:24:13.180Z,154.90
2022-09-12T04:25:13.180Z,155.90
2022-09-12T04:26:13.155Z,158.00
2022-09-12T04:27:13.152Z,155.80
2022-09-12T04:28:13.575Z,173.80
2022-09-12T04:29:13.141Z,152.00
2022-09-12T04:30:13.101Z,159.40
2022-09-12T04:31:13.132Z,164.60
2022-09-12T04:32:13.430Z,171.30
2022-09-12T04:33:13.071Z,164.70
2022-09-12T04:34:13.062Z,174.40
2022-09-12T04:35:13.051Z,157.60
2022-09-12T04:36:13.027Z,165.20
2022-09-12T04:37:13.019Z,168.20
2022-09-12T04:38:13.030Z,165.20
2022-09-12T04:39:19.994Z,165.00
2022-09-12T04:40:19.971Z,161.20
2022-09-12T04:41:12.972Z,166.70
2022-09-12T04:42:13.351Z,174.60
2022-09-12T04:43:14.638Z,164.40
2022-09-12T04:44:12.909Z,158.80
2022-09-12T04:45:12.909Z,170.80
2022-09-12T04:46:12.933Z,163.90
2022-09-12T04:47:12.878Z,163.60
2022-09-12T04:48:13.258Z,160.10
2022-09-12T04:49:12.862Z,162.70
2022-09-12T04:50:12.849Z,153.10
2022-09-12T04:51:12.845Z,166.50
2022-09-12T04:52:12.818Z,162.50
2022-09-12T04:53:12.819Z,159.20
2022-09-12T04:54:13.161Z,164.70
2022-09-12T04:55:12.799Z,165.30
2022-09-12T04:56:12.781Z,160.70
2022-09-12T04:57:12.770Z,160.00
2022-09-12T04:58:12.750Z,157.20
2022-09-12T04:59:12.726Z,149.80
2022-09-12T05:00:13.090Z,160.70
2022-09-12T05:01:12.738Z,157.50
2022-09-12T05:02:12.746Z,161.80
2022-09-12T05:03:12.686Z,145.30
2022-09-12T05:04:12.667Z,162.90
2022-09-12T05:05:12.656Z,168.50
2022-09-12T05:06:12.686Z,171.10
2022-09-12T05:07:12.632Z,162.10
2022-09-12T05:08:12.627Z,145.20
2022-09-12T05:09:12.618Z,163.00
2022-09-12T05:10:12.602Z,151.60
2022-09-12T05:11:12.583Z,148.80
2022-09-12T05:12:12.963Z,159.80
2022-09-12T05:13:12.557Z,148.60
2022-09-12T05:14:12.546Z,164.90
2022-09-12T05:15:12.531Z,141.70
2022-09-12T05:16:12.688Z,143.90
2022-09-12T05:17:12.504Z,151.40
2022-09-12T05:18:12.931Z,153.70
2022-09-12T05:19:12.483Z,141.90
2022-09-12T05:20:12.463Z,141.20
2022-09-12T05:21:12.463Z,144.40
2022-09-12T05:22:12.443Z,147.60
2022-09-12T05:23:12.871Z,137.90
2022-09-12T05:24:12.417Z,147.20
2022-09-12T05:25:12.403Z,150.50
2022-09-12T05:26:12.500Z,150.70
2022-09-12T05:27:12.380Z,141.70
2022-09-12T05:28:12.808Z,143.70
2022-09-12T05:29:12.364Z,141.30
2022-09-12T05:30:12.333Z,133.10
2022-09-12T05:31:12.340Z,134.90
2022-09-12T05:32:12.319Z,132.70
2022-09-12T05:33:12.709Z,139.10
2022-09-12T05:34:12.290Z,132.00
2022-09-12T05:35:12.276Z,138.40
2022-09-12T05:36:12.271Z,136.30
2022-09-12T05:37:12.255Z,140.20
2022-09-12T05:38:12.237Z,131.70
2022-09-12T05:39:12.599Z,143.40
2022-09-12T05:40:12.225Z,135.50
2022-09-12T05:41:16.648Z,130.70
2022-09-12T05:42:13.187Z,132.20
2022-09-12T05:43:12.178Z,132.40
2022-09-12T05:44:12.158Z,133.10
2022-09-12T05:45:12.487Z,127.20
2022-09-12T05:46:12.166Z,134.60
2022-09-12T05:47:12.118Z,131.70
2022-09-12T05:48:12.116Z,128.40
2022-09-12T05:49:12.095Z,146.40
2022-09-12T05:50:12.515Z,142.20
2022-09-12T05:51:12.072Z,145.40
2022-09-12T05:52:12.055Z,139.60
2022-09-12T05:53:12.046Z,128.40
2022-09-12T05:54:12.047Z,136.60
2022-09-12T05:55:12.034Z,135.50
2022-09-12T05:56:12.444Z,129.00
2022-09-12T05:57:11.994Z,123.60
2022-09-12T05:58:11.982Z,129.30
2022-09-12T05:59:11.986Z,130.90
2022-09-12T06:00:11.963Z,131.40
2022-09-12T06:01:11.979Z,121.60
2022-09-12T06:02:12.331Z,129.90
2022-09-12T06:03:11.929Z,125.40
2022-09-12T06:04:11.916Z,135.80
2022-09-12T06:05:11.891Z,125.50
2022-09-12T06:06:11.891Z,125.40
2022-09-12T06:07:11.865Z,128.40
2022-09-12T06:08:12.180Z,136.30
2022-09-12T06:09:11.984Z,129.60
2022-09-12T06:10:11.831Z,132.20
2022-09-12T06:11:11.822Z,127.50
2022-09-12T06:12:11.800Z,121.60
2022-09-12T06:13:12.248Z,129.40
2022-09-12T06:14:11.770Z,129.30
2022-09-12T06:15:11.788Z,126.40
2022-09-12T06:16:11.749Z,134.10
2022-09-12T06:17:11.748Z,128.10
2022-09-12T06:18:11.740Z,134.50
2022-09-12T06:19:12.154Z,134.40
2022-09-12T06:20:11.710Z,140.20
2022-09-12T06:21:11.728Z,135.70
2022-09-12T06:22:11.677Z,129.30
2022-09-12T06:23:11.674Z,156.00
2022-09-12T06:24:12.047Z,170.00
2022-09-12T06:25:11.645Z,173.30
2022-09-12T06:26:11.618Z,181.50
2022-09-12T06:27:11.619Z,181.60
2022-09-12T06:28:11.601Z,181.80
2022-09-12T06:29:11.595Z,183.40
2022-09-12T06:30:12.017Z,179.60
2022-09-12T06:31:11.638Z,180.10
2022-09-12T06:32:11.535Z,176.30
2022-09-12T06:33:11.535Z,161.80
2022-09-12T06:34:11.525Z,168.30
2022-09-12T06:35:11.510Z,177.80
2022-09-12T06:36:12.706Z,171.70
2022-09-12T06:37:11.492Z,167.70
2022-09-12T06:38:11.468Z,172.80
2022-09-12T06:39:11.456Z,176.10
2022-09-12T06:40:11.506Z,169.40
2022-09-12T06:41:11.866Z,172.80
2022-09-12T06:42:11.422Z,168.00
2022-09-12T06:43:11.405Z,175.20
2022-09-12T06:44:18.378Z,174.10
2022-09-12T06:45:18.376Z,188.70
2022-09-12T06:46:18.476Z,192.00
2022-09-12T06:47:11.352Z,174.80
2022-09-12T06:48:11.331Z,152.40
2022-09-12T06:49:11.329Z,144.30
2022-09-12T06:50:11.306Z,147.70
2022-09-12T06:51:11.298Z,141.40
2022-09-12T06:52:11.603Z,164.50
2022-09-12T06:53:11.278Z,150.80
2022-09-12T06:54:11.262Z,169.70
2022-09-12T06:55:11.245Z,149.30
2022-09-12T06:56:11.221Z,144.40
2022-09-12T06:57:11.221Z,143.50
2022-09-12T06:58:11.289Z,149.70
2022-09-12T06:59:11.197Z,141.50
2022-09-12T07:00:11.455Z,154.00
2022-09-12T07:01:11.227Z,137.60
2022-09-12T07:02:11.196Z,148.40
2022-09-12T07:03:11.139Z,146.80
2022-09-12T07:04:11.182Z,145.30
2022-09-12T07:05:11.145Z,141.10
2022-09-12T07:06:11.097Z,140.50
2022-09-12T07:07:11.092Z,131.80
2022-09-12T07:08:11.072Z,125.90
2022-09-12T07:09:11.073Z,137.50
2022-09-12T07:10:11.471Z,136.30
2022-09-12T07:11:11.039Z,131.70
2022-09-12T07:12:11.019Z,136.10
2022-09-12T07:13:11.008Z,135.60
2022-09-12T07:14:11.007Z,121.40
2022-09-12T07:15:11.029Z,130.40
2022-09-12T07:16:11.756Z,121.00
2022-09-12T07:17:10.981Z,124.90
2022-09-12T07:18:10.952Z,134.70
2022-09-12T07:19:10.933Z,131.30
2022-09-12T07:20:10.917Z,128.00
2022-09-12T07:21:10.927Z,116.20
2022-09-12T07:22:17.884Z,141.40
2022-09-12T07:23:17.872Z,141.80
2022-09-12T07:24:17.877Z,144.90
2022-09-12T07:25:11.277Z,132.50
2022-09-12T07:26:17.833Z,145.30
2022-09-12T07:27:17.829Z,141.30
2022-09-12T07:28:17.806Z,129.30
2022-09-12T07:29:35.246Z,132.40
2022-09-12T07:31:21.277Z,107.40
2022-09-12T07:32:28.946Z,135.60
2022-09-12T07:33:20.937Z,132.40
2022-09-12T07:34:20.926Z,125.40
2022-09-12T07:35:21.356Z,125.10
2022-09-12T07:36:20.951Z,135.50
2022-09-12T07:37:20.904Z,125.80
2022-09-12T07:38:20.893Z,129.70
2022-09-12T07:39:20.872Z,121.50
2022-09-12T07:40:21.275Z,118.30
2022-09-12T07:41:20.836Z,121.80
2022-09-12T07:42:20.828Z,119.40
2022-09-12T07:43:20.806Z,118.10
2022-09-12T07:44:20.805Z,128.20
2022-09-12T07:45:21.166Z,116.30
2022-09-12T07:46:20.814Z,122.40
2022-09-12T07:47:20.764Z,123.40
2022-09-12T07:48:20.745Z,114.80
2022-09-12T07:49:20.763Z,112.10
2022-09-12T07:50:21.062Z,111.60
2022-09-12T07:51:20.704Z,122.00
2022-09-12T07:52:20.695Z,113.80
2022-09-12T07:53:20.683Z,113.40
2022-09-12T07:54:20.673Z,107.60
2022-09-12T07:55:21.103Z,120.90
2022-09-12T07:56:20.665Z,117.70
2022-09-12T07:57:20.634Z,106.00
2022-09-12T07:58:20.616Z,105.10
2022-09-12T07:59:35.724Z,106.30
2022-09-12T08:00:22.032Z,103.30
2022-09-12T08:01:20.650Z,105.50
2022-09-12T08:02:20.612Z,108.80
2022-09-12T08:03:20.563Z,97.70
2022-09-12T08:04:20.543Z,105.40
2022-09-12T08:05:20.963Z,109.80
2022-09-12T08:06:20.525Z,109.20
2022-09-12T08:07:20.503Z,103.50
2022-09-12T08:08:20.500Z,106.60
2022-09-12T08:09:20.483Z,109.60
2022-09-12T08:10:20.460Z,100.30
2022-09-12T08:11:20.692Z,117.90
2022-09-12T08:12:20.465Z,91.10
2022-09-12T08:13:20.432Z,103.60
2022-09-12T08:14:20.421Z,103.20
2022-09-12T08:15:20.851Z,99.50
2022-09-12T08:16:20.383Z,97.10
2022-09-12T08:17:20.376Z,97.30
2022-09-12T08:18:20.372Z,99.60
2022-09-12T08:19:20.351Z,94.60
2022-09-12T08:20:20.331Z,96.80
2022-09-12T08:21:20.650Z,94.40
2022-09-12T08:22:20.303Z,91.40
2022-09-12T08:23:27.287Z,92.60
2022-09-12T08:24:27.294Z,93.50
2022-09-12T08:25:21.521Z,99.30
2022-09-12T08:26:20.256Z,100.10
2022-09-12T08:27:20.241Z,114.00
2022-09-12T08:28:20.240Z,110.80
2022-09-12T08:29:20.214Z,113.70
2022-09-12T08:30:20.250Z,114.00
2022-09-12T08:31:20.685Z,111.80
2022-09-12T08:32:20.183Z,118.80
2022-09-12T08:33:20.164Z,114.20
2022-09-12T08:34:20.173Z,107.90
2022-09-12T08:35:20.557Z,108.40
2022-09-12T08:36:20.125Z,109.60
2022-09-12T08:37:20.115Z,109.50
2022-09-12T08:38:20.103Z,111.60
2022-09-12T08:39:20.093Z,112.70
2022-09-12T08:40:20.436Z,100.20
2022-09-12T08:41:20.082Z,105.70
2022-09-12T08:42:20.052Z,105.40
2022-09-12T08:43:20.151Z,103.70
2022-09-12T08:44:20.034Z,108.10
2022-09-12T08:45:20.542Z,111.20
2022-09-12T08:46:20.099Z,100.10
2022-09-12T08:47:19.983Z,99.70
2022-09-12T08:48:19.972Z,100.40
2022-09-12T08:49:19.988Z,89.10
2022-09-12T08:50:20.324Z,95.00
2022-09-12T08:51:19.943Z,94.30
2022-09-12T08:52:19.924Z,95.90
2022-09-12T08:53:19.908Z,93.40
2022-09-12T08:54:19.932Z,90.90
2022-09-12T08:55:20.191Z,93.50
2022-09-12T08:56:19.943Z,93.60
2022-09-12T08:57:19.883Z,93.50
2022-09-12T08:58:19.838Z,96.40
2022-09-12T08:59:19.837Z,86.90
2022-09-12T09:00:20.279Z,93.30
2022-09-12T09:01:19.884Z,91.20
2022-09-12T09:02:19.815Z,89.30
2022-09-12T09:03:19.777Z,88.00
2022-09-12T09:04:19.772Z,90.90
2022-09-12T09:05:20.131Z,92.70
2022-09-12T09:06:19.741Z,83.00
2022-09-12T09:07:19.731Z,90.70
2022-09-12T09:08:19.710Z,90.40
2022-09-12T09:09:19.720Z,89.20
2022-09-12T09:10:20.120Z,92.30
2022-09-12T09:11:19.679Z,95.90
2022-09-12T09:12:19.659Z,83.00
2022-09-12T09:13:19.650Z,89.10
2022-09-12T09:14:19.629Z,88.20
2022-09-12T09:15:19.938Z,88.90
2022-09-12T09:16:19.683Z,90.00
2022-09-12T09:17:19.589Z,81.20
2022-09-12T09:18:19.586Z,91.50
2022-09-12T09:19:19.616Z,85.90
2022-09-12T09:20:21.159Z,87.90
2022-09-12T09:21:19.542Z,87.80
2022-09-12T09:22:19.536Z,86.50
2022-09-12T09:23:19.628Z,83.10
2022-09-12T09:24:19.524Z,83.60
2022-09-12T09:25:22.851Z,96.60
2022-09-12T09:26:19.477Z,89.20
2022-09-12T09:27:37.311Z,92.10
2022-09-12T09:28:20.466Z,83.40
2022-09-12T09:29:19.438Z,89.20
2022-09-12T09:30:19.763Z,81.90
2022-09-12T09:31:19.448Z,84.40
2022-09-12T09:32:19.406Z,73.30
2022-09-12T09:33:19.388Z,85.40
2022-09-12T09:34:19.398Z,83.00
2022-09-12T09:35:19.796Z,85.40
2022-09-12T09:36:19.493Z,84.40
2022-09-12T09:37:19.336Z,82.30
2022-09-12T09:38:19.439Z,85.00
2022-09-12T09:39:19.305Z,84.60
2022-09-12T09:40:19.734Z,84.10
2022-09-12T09:41:19.297Z,75.60
2022-09-12T09:42:19.310Z,82.90
2022-09-12T09:43:19.257Z,84.20
2022-09-12T09:44:19.253Z,78.20
2022-09-12T09:45:19.575Z,80.70
2022-09-12T09:46:19.289Z,77.40
2022-09-12T09:47:19.199Z,80.20
2022-09-12T09:48:19.188Z,80.60
2022-09-12T09:49:19.178Z,77.80
2022-09-12T09:50:19.203Z,75.50
2022-09-12T09:51:19.184Z,74.50
2022-09-12T09:52:19.145Z,66.60
2022-09-12T09:53:19.144Z,51.30
2022-09-12T09:54:19.127Z,15.20
2022-09-12T09:55:19.551Z,18.70
2022-09-12T09:56:21.499Z,29.30
2022-09-12T09:57:19.079Z,32.30
2022-09-12T09:58:19.074Z,39.60
2022-09-12T09:59:19.057Z,36.40
2022-09-12T10:00:19.414Z,36.60
2022-09-12T10:01:19.066Z,32.90
2022-09-12T10:02:23.671Z,36.00
2022-09-12T10:03:20.004Z,40.30
2022-09-12T10:04:19.013Z,37.30
2022-09-12T10:05:19.038Z,32.80
2022-09-12T10:06:18.974Z,43.40
2022-09-12T10:07:18.959Z,32.20
2022-09-12T10:08:18.946Z,41.10
2022-09-12T10:09:18.947Z,40.20
2022-09-12T10:10:18.939Z,33.20
2022-09-12T10:11:19.486Z,36.10
2022-09-12T10:12:18.917Z,37.80
2022-09-12T10:13:18.893Z,38.30
2022-09-12T10:14:20.853Z,38.80
2022-09-12T10:15:18.894Z,40.00
2022-09-12T10:16:18.975Z,38.20
2022-09-12T10:17:18.839Z,34.90
2022-09-12T10:18:18.838Z,35.40
2022-09-12T10:19:18.794Z,33.80
2022-09-12T10:20:21.838Z,38.30
2022-09-12T10:21:18.814Z,29.80
2022-09-12T10:22:18.803Z,37.80
2022-09-12T10:23:18.792Z,36.00
2022-09-12T10:24:18.752Z,35.80
2022-09-12T10:25:19.233Z,34.70
2022-09-12T10:26:18.703Z,42.00
2022-09-12T10:27:18.703Z,32.70
2022-09-12T10:28:18.700Z,34.40
2022-09-12T10:29:18.663Z,35.90
2022-09-12T10:30:18.712Z,41.10
2022-09-12T10:31:18.723Z,36.20
2022-09-12T10:32:18.654Z,42.00
2022-09-12T10:33:18.615Z,41.90
2022-09-12T10:34:18.601Z,38.30
2022-09-12T10:35:18.952Z,37.80
2022-09-12T10:36:18.604Z,35.70
2022-09-12T10:37:22.324Z,39.40
2022-09-12T10:38:18.561Z,35.50
2022-09-12T10:39:18.542Z,40.30
2022-09-12T10:40:18.974Z,37.80
2022-09-12T10:41:18.514Z,35.30
2022-09-12T10:42:22.841Z,33.10
2022-09-12T10:43:18.491Z,35.30
2022-09-12T10:44:18.482Z,30.90
2022-09-12T10:45:18.902Z,35.30
2022-09-12T10:46:18.580Z,32.10
2022-09-12T10:47:18.455Z,30.70
2022-09-12T10:48:18.432Z,39.80
2022-09-12T10:49:18.410Z,32.00
2022-09-12T10:50:22.834Z,27.70
2022-09-12T10:51:19.101Z,37.40
2022-09-12T10:52:18.398Z,29.60
2022-09-12T10:53:18.377Z,33.40
2022-09-12T10:54:18.371Z,28.20
2022-09-12T10:55:18.691Z,32.40
2022-09-12T10:56:18.333Z,36.00
2022-09-12T10:57:18.315Z,27.90
2022-09-12T10:58:18.332Z,33.40
2022-09-12T10:59:20.235Z,33.20
2022-09-12T11:00:18.292Z,29.60
2022-09-12T11:01:18.337Z,29.30
2022-09-12T11:02:18.306Z,33.80
2022-09-12T11:03:18.311Z,29.20
2022-09-12T11:04:18.231Z,31.60
2022-09-12T11:05:22.436Z,27.60
2022-09-12T11:06:18.235Z,31.60
2022-09-12T11:07:18.253Z,29.90
2022-09-12T11:08:18.455Z,31.90
2022-09-12T11:09:18.273Z,33.60
2022-09-12T11:10:18.504Z,33.30
2022-09-12T11:11:20.568Z,28.80
2022-09-12T11:12:18.400Z,30.00
2022-09-12T11:13:18.235Z,30.70
2022-09-12T11:14:18.109Z,21.50
2022-09-12T11:15:18.130Z,28.20
2022-09-12T11:16:25.062Z,29.60
2022-09-12T11:17:18.041Z,31.30
2022-09-12T11:18:26.984Z,35.10
2022-09-12T11:19:18.048Z,36.80
2022-09-12T11:20:25.071Z,28.20
2022-09-12T11:21:25.937Z,34.20
2022-09-12T11:22:28.642Z,25.90
2022-09-12T11:23:18.985Z,24.40
2022-09-12T11:24:25.998Z,21.30
2022-09-12T11:25:24.975Z,31.50
2022-09-12T11:26:17.955Z,25.80
2022-09-12T11:27:25.281Z,24.20
2022-09-12T11:28:17.911Z,22.40
2022-09-12T11:29:17.983Z,21.10
2022-09-12T11:30:18.009Z,19.30
2022-09-12T11:31:17.945Z,21.60
2022-09-12T11:32:17.870Z,25.20
2022-09-12T11:33:17.871Z,22.20
2022-09-12T11:34:17.958Z,24.40
2022-09-12T11:35:17.912Z,24.50
2022-09-12T11:36:17.922Z,25.30
2022-09-12T11:37:18.277Z,25.40
2022-09-12T11:38:17.829Z,19.30
2022-09-12T11:39:17.770Z,20.00
2022-09-12T11:40:18.013Z,23.20
2022-09-12T11:41:17.741Z,22.40
2022-09-12T11:42:17.751Z,26.00
2022-09-12T11:43:17.720Z,24.00
2022-09-12T11:44:17.720Z,22.80
2022-09-12T11:45:18.164Z,22.70
2022-09-12T11:46:17.828Z,20.60
2022-09-12T11:47:17.690Z,26.40
2022-09-12T11:48:17.672Z,25.00
2022-09-12T11:49:17.650Z,22.70
2022-09-12T11:50:17.858Z,26.60
2022-09-12T11:51:17.629Z,21.90
2022-09-12T11:52:17.624Z,25.10
2022-09-12T11:53:17.601Z,25.80
2022-09-12T11:54:17.667Z,28.60
2022-09-12T11:55:18.679Z,27.90
2022-09-12T11:56:17.657Z,26.70
2022-09-12T11:57:17.540Z,20.70
2022-09-12T11:58:17.540Z,20.80
2022-09-12T11:59:17.520Z,19.50
2022-09-12T12:00:17.514Z,21.10
2022-09-12T12:01:17.531Z,21.00
2022-09-12T12:02:17.529Z,20.20
2022-09-12T12:03:17.535Z,17.80
2022-09-12T12:04:17.468Z,14.80
2022-09-12T12:05:17.489Z,14.30
2022-09-12T12:06:17.444Z,20.20
2022-09-12T12:07:17.430Z,22.40
2022-09-12T12:08:17.409Z,16.60
2022-09-12T12:09:17.398Z,17.40
2022-09-12T12:10:17.396Z,19.50
2022-09-12T12:11:17.397Z,19.60
2022-09-12T12:12:17.387Z,20.90
2022-09-12T12:13:17.340Z,19.40
2022-09-12T12:14:17.330Z,18.30
2022-09-12T12:15:17.361Z,20.40
2022-09-12T12:16:17.325Z,20.60
2022-09-12T12:17:17.299Z,18.00
2022-09-12T12:18:17.279Z,17.30
2022-09-12T12:19:17.270Z,21.90
2022-09-12T12:20:17.273Z,18.20
2022-09-12T12:21:17.270Z,13.80
2022-09-12T12:22:17.239Z,12.70
2022-09-12T12:23:17.278Z,20.70
2022-09-12T12:24:17.208Z,15.50
2022-09-12T12:25:21.323Z,18.00
2022-09-12T12:26:17.190Z,15.60
2022-09-12T12:27:17.169Z,15.50
2022-09-12T12:28:17.168Z,17.60
2022-09-12T12:29:17.147Z,16.50
2022-09-12T12:30:17.298Z,17.90
2022-09-12T12:31:17.197Z,13.70
2022-09-12T12:32:17.275Z,13.20
2022-09-12T12:33:17.089Z,15.60
2022-09-12T12:34:17.091Z,16.10
2022-09-12T12:35:17.469Z,20.50
2022-09-12T12:36:17.067Z,19.70
2022-09-12T12:37:17.038Z,17.30